Pavlodar, Kazakhstan

7:47 AM +06 on June 24, 2017 (GMT +0600)
Pavlodar | | Change Station

Elev 407 ft 52.20 °N, 77.07 °E | Updated 17 minutes ago

Overcast
Overcast
70 °F
Feels Like 70 °F
N
13
Wind Variable Wind from ENE

Today
High -- | Low -- °F
--% Chance of Precip.
Yesterday
High -- | Low -- °F
Precip. -- in
Pressure 29.50 in
Visibility 6.2 miles
Clouds Mostly Cloudy 4200 ft
Overcast 13000 ft
Dew Point 63 °F
Humidity 78%
Rainfall 0.00 in
Snow Depth Not available.
4:31 AM 9:18 PM
Waning Crescent, 0% visible
METAR UASP 240130Z 07006MPS 9999 BKN042CB OVC130 21/17 Q0999 R03/0///70 TEMPO VRB15MPS 2100 -TSRA SQ RMK QFE739/0985
Pressure 29.50 in
Visibility 6.2 miles
Clouds Mostly Cloudy 4200 ft
Overcast 13000 ft
Dew Point 63 °F
Humidity 78%
Rainfall 0.00 in
Snow Depth Not available.
4:31 AM 9:18 PM
Waning Crescent, 0% visible
METAR UASP 240130Z 07006MPS 9999 BKN042CB OVC130 21/17 Q0999 R03/0///70 TEMPO VRB15MPS 2100 -TSRA SQ RMK QFE739/0985

Get Severe Weather Alerts

Thanks for signing up!

Be on the lookout for a verification email in your inbox.

You'll start receiving the daily forecast at 6 AM.

×

10-Day Weather Forecast

×

Almanac

Astronomy

Jun. 24, 2017 Rise Set
Actual Time
Civil Twilight
Nautical Twilight
Astronomical Twilight
Moon
Length of Visible Light
Length of Day
Tomorrow will be .
, % of the Moon is Illuminated

Today's Extremes

Country Highs Country Lows

Community

WunderPhotos

Category 6

Welcome to Category 6. This is the collective home for Weather Underground's featured writeups by Dr. Jeff Masters (right), Bob Henson (left), Chris Burt, and other regular contributors.

Nearby

Air Quality

  Air Quality AQ Index Pollutant
Not available.

Snow Depth

Station Depth Elevation

Earthquake Activity

City Distance Mag. Time & Date
Minimum magnitude displayed is 2.5.

Coastal Water Temperatures

Place Temperature

Stations

Nearby Weather Stations

Station Location Temp. Windchill Dew Point Humidity Wind Precip. Elev Updated Type